Time;durP1;ratioP1;P1;durP2;ratioP2;P2;SDS_P1;SDS_P2;PMS_P1;PMS_P2;Temp;Humidity;BMP_temperature;BMP_pressure;BME280_temperature;BME280_humidity;BME280_pressure;Samples;Min_cycle;Max_cycle;Signal;HPM_P1;HPM_P2
2022/06/13 00:00:48;;;;;;;8.73;1.50;;;;;;;9.20;100.00;98961.94;5078533;28;20131;-93
2022/06/13 00:03:16;;;;;;;8.18;1.88;;;;;;;9.22;100.00;98960.19;5063648;28;20045;-94
2022/06/13 00:05:42;;;;;;;9.30;1.63;;;;;;;9.19;100.00;98957.59;5054816;28;20036;-94
2022/06/13 00:08:08;;;;;;;10.45;1.50;;;;;;;9.16;100.00;98957.59;5049805;28;20633;-90
2022/06/13 00:10:34;;;;;;;10.75;1.80;;;;;;;9.18;100.00;98952.41;5066677;28;20036;-94
2022/06/13 00:12:59;;;;;;;7.60;1.58;;;;;;;9.23;100.00;98950.66;5085136;28;20028;-93
2022/06/13 00:15:25;;;;;;;10.95;1.58;;;;;;;9.30;100.00;98952.38;5086138;28;20488;-93
2022/06/13 00:17:52;;;;;;;7.90;1.67;;;;;;;9.32;100.00;98941.97;5088652;28;20039;-93
2022/06/13 00:20:18;;;;;;;10.02;1.70;;;;;;;9.40;100.00;98940.22;5087503;28;20031;-93
2022/06/13 00:22:44;;;;;;;8.18;1.60;;;;;;;9.37;100.00;98933.28;5089465;28;20843;-93
2022/06/13 00:25:13;;;;;;;8.35;1.77;;;;;;;9.36;100.00;98935.91;5087239;28;20028;-93
2022/06/13 00:27:42;;;;;;;10.23;1.80;;;;;;;9.36;100.00;98935.91;5084960;28;20034;-93
2022/06/13 00:30:28;;;;;;;6.82;1.42;;;;;;;9.40;100.00;98945.44;5087376;28;20044;-94
2022/06/13 00:33:05;;;;;;;10.80;1.85;;;;;;;9.37;100.00;98938.50;5084722;28;20392;-94
2022/06/13 00:35:30;;;;;;;7.10;1.60;;;;;;;9.34;100.00;98935.06;5082901;28;20484;-94
2022/06/13 00:38:01;;;;;;;7.65;1.80;;;;;;;9.28;100.00;98929.84;5087677;28;20111;-93
2022/06/13 00:40:49;;;;;;;7.00;1.55;;;;;;;9.31;100.00;98937.63;5083357;28;20443;-92
2022/06/13 00:43:17;;;;;;;8.95;1.70;;;;;;;9.30;100.00;98941.97;5087701;28;20107;-94
2022/06/13 00:45:43;;;;;;;8.00;1.70;;;;;;;9.28;100.00;98927.22;5089546;28;20030;-94
2022/06/13 00:48:13;;;;;;;6.93;1.60;;;;;;;9.29;100.00;98934.19;5088061;28;20025;-93
2022/06/13 00:50:55;;;;;;;8.20;1.67;;;;;;;9.29;100.00;98947.19;5089960;28;20028;-93
2022/06/13 00:53:39;;;;;;;5.53;1.40;;;;;;;9.28;100.00;98935.03;5091229;28;20079;-94
2022/06/13 00:56:12;;;;;;;6.47;1.50;;;;;;;9.18;100.00;98948.03;5110261;27;20039;-94
2022/06/13 00:58:46;;;;;;;5.88;1.50;;;;;;;9.18;100.00;98957.59;5112974;28;20063;-95
2022/06/13 01:01:13;;;;;;;7.07;1.58;;;;;;;9.16;100.00;98951.53;5117042;28;20023;-93
2022/06/13 01:03:39;;;;;;;6.68;1.60;;;;;;;9.12;100.00;98948.06;5127201;28;20042;-95
2022/06/13 01:06:09;;;;;;;7.13;1.80;;;;;;;9.13;100.00;98949.81;5115869;28;20024;-95
2022/06/13 01:08:39;;;;;;;7.88;1.67;;;;;;;9.18;100.00;98961.06;5110764;28;20036;-94
2022/06/13 01:11:18;;;;;;;8.15;1.55;;;;;;;9.20;100.00;98961.09;5119284;28;20027;-95
2022/06/13 01:13:52;;;;;;;7.43;1.60;;;;;;;9.20;100.00;98964.53;5128502;28;20061;-95
2022/06/13 01:20:08;;;;;;;7.05;1.98;;;;;;;9.17;100.00;98958.47;5112520;28;20041;-94
2022/06/13 01:22:55;;;;;;;7.50;1.48;;;;;;;9.11;100.00;98969.72;5109575;28;20085;-94
2022/06/13 01:25:24;;;;;;;8.57;1.60;;;;;;;9.08;100.00;98972.34;5120125;28;20059;-95
2022/06/13 01:28:23;;;;;;;8.73;1.73;;;;;;;9.09;100.00;98973.19;5125818;28;20079;-94
2022/06/13 01:31:12;;;;;;;9.70;1.60;;;;;;;9.01;100.00;98973.22;5128229;28;20031;-94
2022/06/13 01:33:49;;;;;;;6.18;1.60;;;;;;;8.92;100.00;98961.06;5127940;28;20036;-94
2022/06/13 01:36:18;;;;;;;6.32;1.65;;;;;;;8.86;100.00;98964.50;5117416;28;20016;-95
2022/06/13 01:39:08;;;;;;;8.35;1.60;;;;;;;8.88;100.00;98969.75;5109315;28;20089;-93
2022/06/13 01:41:58;;;;;;;7.63;2.10;;;;;;;8.96;100.00;98961.94;5109326;28;20035;-93
2022/06/13 01:44:42;;;;;;;9.70;1.83;;;;;;;9.00;100.00;98971.47;5107957;28;20019;-93
2022/06/13 01:47:32;;;;;;;9.57;1.80;;;;;;;9.03;100.00;98974.06;5108755;28;20031;-94
2022/06/13 01:50:36;;;;;;;7.80;1.58;;;;;;;9.01;100.00;98983.63;5106115;28;20024;-93
2022/06/13 01:53:26;;;;;;;6.55;1.63;;;;;;;9.02;100.00;98983.63;5109032;28;20061;-93
2022/06/13 01:56:13;;;;;;;7.25;1.60;;;;;;;9.01;100.00;98987.06;5108710;28;20760;-94
2022/06/13 01:59:09;;;;;;;8.18;1.70;;;;;;;8.97;100.00;98987.06;5102856;28;20093;-92
2022/06/13 02:01:44;;;;;;;7.57;1.33;;;;;;;8.96;100.00;98985.34;5097914;28;20042;-94
2022/06/13 02:04:30;;;;;;;;;;;;;;;;;;;;;
2022/06/13 02:07:42;;;;;;;6.93;1.45;;;;;;;8.83;100.00;98974.06;5098745;28;20031;-93
2022/06/13 02:10:41;;;;;;;7.15;1.60;;;;;;;8.74;100.00;98956.72;5104407;28;20498;-94
2022/06/13 02:13:24;;;;;;;8.13;1.80;;;;;;;8.71;100.00;98948.88;5090458;28;20443;-92
2022/06/13 02:16:11;;;;;;;8.35;1.80;;;;;;;8.75;100.00;98958.44;5099370;28;20032;-93
2022/06/13 02:19:03;;;;;;;9.73;2.00;;;;;;;8.75;100.00;98963.63;5098532;28;20123;-94
2022/06/13 02:21:50;;;;;;;7.90;1.80;;;;;;;8.77;100.00;98974.03;5101514;28;20032;-94
2022/06/13 02:24:45;;;;;;;8.57;1.73;;;;;;;8.72;100.00;98974.03;5106575;28;20027;-94
2022/06/13 02:27:13;;;;;;;9.43;1.75;;;;;;;8.70;100.00;98960.19;5110718;28;21188;-93
2022/06/13 02:29:54;;;;;;;5.63;1.70;;;;;;;8.68;100.00;98962.78;5104837;28;20119;-93
2022/06/13 02:32:40;;;;;;;7.55;1.92;;;;;;;8.66;100.00;98956.69;5103743;28;20111;-93
2022/06/13 02:35:16;;;;;;;9.55;1.80;;;;;;;8.67;100.00;98945.44;5110027;28;20036;-93
2022/06/13 02:38:40;;;;;;;7.47;1.70;;;;;;;8.64;100.00;98940.25;5110227;28;20040;-93
2022/06/13 02:41:20;;;;;;;10.00;2.00;;;;;;;8.64;100.00;98966.25;5023308;28;20492;-94
2022/06/13 02:44:25;;;;;;;7.65;1.90;;;;;;;8.63;100.00;98966.19;5028274;28;20124;-93
2022/06/13 02:47:05;;;;;;;6.07;1.83;;;;;;;8.60;100.00;98976.59;5043579;28;20021;-94
2022/06/13 02:49:54;;;;;;;9.40;1.85;;;;;;;8.61;100.00;98971.41;5022116;28;20033;-94
2022/06/13 02:52:45;;;;;;;9.30;1.95;;;;;;;8.51;100.00;98983.50;5044432;28;20170;-93
2022/06/13 02:55:20;;;;;;;6.82;1.73;;;;;;;8.48;100.00;98987.84;5027692;28;20076;-94
2022/06/13 02:58:06;;;;;;;9.80;1.92;;;;;;;8.48;100.00;98996.50;5041050;28;20032;-93
2022/06/13 03:00:44;;;;;;;7.60;1.75;;;;;;;8.51;100.00;99000.84;5047425;28;20037;-93
2022/06/13 03:03:18;;;;;;;9.77;2.10;;;;;;;8.47;100.00;98997.34;5046564;28;20083;-90
2022/06/13 03:06:38;;;;;;;;;;;;;;;;;;;;;
2022/06/13 03:09:58;;;;;;;11.23;2.22;;;;;;;8.46;100.00;98998.25;5103592;28;20046;-94
2022/06/13 03:12:55;;;;;;;10.23;2.08;;;;;;;8.43;100.00;98994.72;5070276;28;20070;-94
2022/06/13 03:15:34;;;;;;;13.80;2.63;;;;;;;8.44;100.00;99001.66;5105802;28;20035;-94
2022/06/13 03:18:15;;;;;;;6.85;1.75;;;;;;;8.36;100.00;98999.91;5108914;28;20028;-91
2022/06/13 03:21:18;;;;;;;9.15;1.67;;;;;;;8.33;100.00;99006.81;5105543;28;20133;-93
2022/06/13 03:24:17;;;;;;;8.73;1.80;;;;;;;8.29;100.00;99005.91;5136654;27;20081;-93
2022/06/13 03:26:51;;;;;;;10.30;2.08;;;;;;;8.30;100.00;99007.66;5094835;28;20036;-93
2022/06/13 03:29:31;;;;;;;9.07;2.05;;;;;;;8.26;100.00;99008.50;5106130;28;20043;-92
2022/06/13 03:32:05;;;;;;;6.22;1.90;;;;;;;8.27;100.00;99012.84;5109160;28;20101;-94
2022/06/13 03:34:35;;;;;;;9.02;2.08;;;;;;;8.28;100.00;99014.59;5113915;28;20104;-93
2022/06/13 03:37:06;;;;;;;9.93;2.10;;;;;;;8.27;100.00;99018.06;5119108;28;20034;-93
2022/06/13 03:39:45;;;;;;;7.97;2.00;;;;;;;8.20;100.00;99014.56;5114933;28;20119;-93
2022/06/13 03:42:26;;;;;;;8.25;2.15;;;;;;;8.20;100.00;99024.94;5109904;28;20024;-93
2022/06/13 03:45:00;;;;;;;6.65;1.80;;;;;;;8.23;100.00;99025.84;5111219;28;20019;-93
2022/06/13 03:47:35;;;;;;;8.68;2.67;;;;;;;8.19;100.00;99033.59;5109550;28;20403;-92
2022/06/13 03:50:06;;;;;;;9.80;2.00;;;;;;;8.16;100.00;99049.16;5107910;28;20023;-94
2022/06/13 03:52:34;;;;;;;6.82;1.60;;;;;;;8.13;100.00;99041.38;5116229;28;20047;-92
2022/06/13 03:55:26;;;;;;;9.48;1.75;;;;;;;8.12;100.00;99046.56;5111143;28;20108;-91
2022/06/13 03:57:59;;;;;;;9.30;1.90;;;;;;;8.28;100.00;99050.09;5108619;28;20023;-92
2022/06/13 04:00:34;;;;;;;6.60;1.80;;;;;;;8.28;100.00;99040.59;5108654;28;20107;-94
2022/06/13 04:03:04;;;;;;;6.93;1.60;;;;;;;8.23;100.00;99044.03;5114570;28;20035;-93
2022/06/13 04:05:37;;;;;;;8.10;1.77;;;;;;;8.29;100.00;99050.09;5111576;28;20020;-94
2022/06/13 04:08:06;;;;;;;8.05;1.70;;;;;;;8.38;100.00;99044.09;5106573;28;20427;-94
2022/06/13 04:10:40;;;;;;;8.00;1.65;;;;;;;8.50;100.00;99046.78;5102856;28;20047;-93
2022/06/13 04:13:44;;;;;;;12.77;1.90;;;;;;;8.58;100.00;99051.13;5107934;28;20104;-93
2022/06/13 04:16:39;;;;;;;7.72;1.75;;;;;;;8.63;100.00;99046.81;5086698;28;20251;-93
2022/06/13 04:19:14;;;;;;;8.40;1.70;;;;;;;8.62;100.00;99039.88;5103687;28;20392;-94
2022/06/13 04:22:07;;;;;;;6.85;1.90;;;;;;;8.63;100.00;99052.88;5112001;28;20038;-94
2022/06/13 04:24:46;;;;;;;10.57;2.05;;;;;;;8.75;100.00;99043.38;5106795;28;20062;-93
2022/06/13 04:27:32;;;;;;;9.45;2.15;;;;;;;8.78;100.00;99046.88;5097540;28;20042;-94
2022/06/13 04:30:34;;;;;;;8.00;1.80;;;;;;;8.86;100.00;99039.94;5100608;28;20456;-95
2022/06/13 04:33:14;;;;;;;9.98;1.77;;;;;;;8.91;100.00;99044.28;5101908;28;20078;-94
2022/06/13 04:35:43;;;;;;;9.27;2.20;;;;;;;9.00;100.00;99054.72;5113618;28;20032;-93
2022/06/13 04:38:12;;;;;;;10.38;1.73;;;;;;;9.07;100.00;99050.41;5115009;28;20031;-94
2022/06/13 04:40:43;;;;;;;7.95;2.15;;;;;;;9.08;100.00;99054.75;5110824;28;20039;-93
2022/06/13 04:43:11;;;;;;;8.30;1.90;;;;;;;9.14;100.00;99049.53;5104582;22;20053;-93
2022/06/13 04:45:58;;;;;;;10.55;1.80;;;;;;;9.24;100.00;99048.66;5024380;28;20053;-92
2022/06/13 04:48:24;;;;;;;7.50;1.95;;;;;;;9.29;100.00;99053.91;5019971;28;20055;-92
2022/06/13 04:51:05;;;;;;;10.20;1.77;;;;;;;9.38;100.00;99054.78;5028660;28;20029;-91
2022/06/13 04:53:46;;;;;;;11.50;1.92;;;;;;;9.46;100.00;99051.28;5044391;28;20029;-91
2022/06/13 04:56:12;;;;;;;7.65;1.58;;;;;;;9.52;100.00;99057.38;5043415;28;20025;-93
2022/06/13 04:58:39;;;;;;;10.18;1.92;;;;;;;9.51;100.00;99058.25;5041601;28;20022;-92
2022/06/13 05:01:30;;;;;;;8.23;1.95;;;;;;;9.49;100.00;99062.59;5028233;28;20498;-94
2022/06/13 05:04:01;;;;;;;5.85;1.67;;;;;;;9.50;100.00;99055.63;5030941;28;20017;-92
2022/06/13 05:06:50;;;;;;;7.45;1.60;;;;;;;9.48;100.00;99063.44;5028512;28;20033;-93
2022/06/13 05:09:30;;;;;;;7.28;1.77;;;;;;;9.45;100.00;99066.06;5025857;28;20022;-93
2022/06/13 05:12:04;;;;;;;7.13;1.60;;;;;;;9.38;100.00;99064.28;5029233;28;20025;-92
2022/06/13 05:14:39;;;;;;;9.90;1.92;;;;;;;9.33;100.00;99059.09;5019920;28;20292;-92
2022/06/13 05:17:36;;;;;;;10.45;1.75;;;;;;;9.18;100.00;99065.16;5027602;28;20171;-93
2022/06/13 05:20:26;;;;;;;11.55;2.35;;;;;;;9.15;100.00;99067.75;5027196;28;20021;-93
2022/06/13 05:23:15;;;;;;;9.57;1.70;;;;;;;9.05;100.00;99066.88;5026028;28;20033;-92
2022/06/13 05:25:44;;;;;;;7.55;1.92;;;;;;;9.06;100.00;99070.34;5020090;28;20025;-92
2022/06/13 05:28:24;;;;;;;6.18;1.45;;;;;;;9.01;100.00;99075.53;5020361;28;20050;-93
2022/06/13 05:30:53;;;;;;;9.30;1.42;;;;;;;9.10;100.00;99064.25;5018092;28;20043;-93
2022/06/13 05:33:26;;;;;;;7.97;1.65;;;;;;;9.23;100.00;99076.44;5020980;28;20029;-92
2022/06/13 05:35:55;;;;;;;7.72;1.50;;;;;;;9.29;100.00;99078.19;5023955;28;20065;-94
2022/06/13 05:38:33;;;;;;;7.60;1.50;;;;;;;9.42;100.00;99076.44;5025520;28;20256;-92
2022/06/13 05:41:01;;;;;;;5.97;1.40;;;;;;;9.55;100.00;99074.75;5024706;28;20059;-91
2022/06/13 05:43:27;;;;;;;5.93;1.45;;;;;;;9.68;100.00;99080.81;5023695;28;20080;-91
2022/06/13 05:46:02;;;;;;;6.25;1.40;;;;;;;9.71;100.00;99080.81;5043206;28;20029;-91
2022/06/13 05:48:28;;;;;;;8.32;2.33;;;;;;;9.74;100.00;99083.41;5033133;28;20040;-92
2022/06/13 05:51:32;;;;;;;10.15;2.00;;;;;;;9.83;100.00;99086.00;5024996;28;20124;-92
2022/06/13 05:53:58;;;;;;;8.25;1.38;;;;;;;9.93;100.00;99089.47;5023018;28;20533;-92
2022/06/13 05:56:25;;;;;;;6.65;1.58;;;;;;;10.01;100.00;99092.94;5020910;28;20043;-92
2022/06/13 05:58:51;;;;;;;7.38;1.50;;;;;;;10.02;100.00;99096.41;5037764;28;20048;-92
2022/06/13 06:01:17;;;;;;;10.52;1.65;;;;;;;9.99;100.00;99089.47;5032468;28;20029;-93
2022/06/13 06:03:51;;;;;;;9.88;1.42;;;;;;;9.90;100.00;99086.88;5023315;28;20678;-93
2022/06/13 06:06:25;;;;;;;11.88;1.52;;;;;;;9.88;100.00;99079.06;5026119;28;20018;-94
2022/06/13 06:08:54;;;;;;;8.07;1.60;;;;;;;9.81;100.00;99073.84;5029555;28;20064;-92
2022/06/13 06:11:20;;;;;;;10.43;1.80;;;;;;;9.77;100.00;99073.00;5027990;28;20099;-91
2022/06/13 06:13:46;;;;;;;9.32;1.80;;;;;;;9.93;100.00;99078.19;5025915;28;20504;-92
2022/06/13 06:16:17;;;;;;;9.25;1.50;;;;;;;10.04;100.00;99081.66;5024375;28;20083;-92
2022/06/13 06:18:43;;;;;;;11.38;1.50;;;;;;;10.13;100.00;99083.34;5021412;28;20125;-92
2022/06/13 06:21:09;;;;;;;8.18;1.40;;;;;;;10.03;100.00;99087.72;5024538;28;20120;-91
2022/06/13 06:23:35;;;;;;;5.53;1.40;;;;;;;10.01;100.00;99079.91;5020696;28;20033;-92
2022/06/13 06:26:01;;;;;;;6.00;1.38;;;;;;;9.94;100.00;99087.72;5026058;28;20063;-92
2022/06/13 06:28:27;;;;;;;8.77;1.52;;;;;;;9.97;100.00;99090.34;5023645;28;20021;-93
2022/06/13 06:30:55;;;;;;;8.80;1.42;;;;;;;10.09;100.00;99090.34;5026113;28;20029;-93
2022/06/13 06:33:22;;;;;;;8.38;1.70;;;;;;;10.24;100.00;99085.09;5024266;28;20033;-93
2022/06/13 06:35:48;;;;;;;11.38;1.88;;;;;;;10.44;100.00;99094.63;5025457;28;20043;-92
2022/06/13 06:38:15;;;;;;;10.93;2.00;;;;;;;10.71;100.00;99096.25;5026143;28;20025;-92
2022/06/13 06:40:40;;;;;;;7.38;1.90;;;;;;;10.78;100.00;99083.19;5031234;28;20029;-91
2022/06/13 06:43:06;;;;;;;7.03;1.58;;;;;;;10.87;100.00;99097.06;5018712;28;20045;-92
2022/06/13 06:45:32;;;;;;;9.90;1.80;;;;;;;10.70;100.00;99094.53;5022495;28;20474;-91
2022/06/13 06:47:58;;;;;;;12.55;1.90;;;;;;;10.83;100.00;99084.91;5026395;28;20029;-92
2022/06/13 06:50:30;;;;;;;8.80;1.80;;;;;;;10.82;100.00;99088.38;5026510;28;20033;-93
2022/06/13 06:52:57;;;;;;;7.07;1.75;;;;;;;10.88;100.00;99084.88;5021477;28;20037;-92
2022/06/13 07:01:17;;;;;;;6.70;1.40;;;;;;;11.21;100.00;99094.25;5005018;28;20044;-92
2022/06/13 07:03:43;;;;;;;8.65;1.85;;;;;;;11.11;100.00;99089.97;5004312;28;20064;-92
2022/06/13 07:06:09;;;;;;;7.45;1.42;;;;;;;11.02;100.00;99087.41;5000519;28;20042;-92
2022/06/13 07:08:38;;;;;;;9.23;1.50;;;;;;;10.96;100.00;99087.44;5003745;28;20072;-93
2022/06/13 07:13:53;;;;;;;6.13;1.65;;;;;;;10.88;100.00;99104.03;5001348;28;20115;-93
2022/06/13 07:16:19;;;;;;;8.57;1.70;;;;;;;10.93;100.00;99111.81;4990889;28;20030;-92
2022/06/13 07:18:55;;;;;;;8.32;1.92;;;;;;;10.70;100.00;99114.50;5009663;28;20566;-92
2022/06/13 07:21:21;;;;;;;8.75;1.40;;;;;;;10.68;100.00;99116.28;5003330;28;20050;-91
2022/06/13 07:23:46;;;;;;;10.43;1.50;;;;;;;10.79;100.00;99124.91;5001695;28;20044;-91
2022/06/13 07:26:12;;;;;;;11.90;1.67;;;;;;;10.54;100.00;99119.78;5001187;28;20048;-92
2022/06/13 07:28:38;;;;;;;7.10;1.58;;;;;;;10.51;100.00;99127.63;4998821;28;20029;-91
2022/06/13 07:31:03;;;;;;;9.07;1.65;;;;;;;10.49;100.00;99131.97;4997783;28;20033;-90
2022/06/13 07:33:30;;;;;;;11.57;1.90;;;;;;;10.47;100.00;99130.25;5027365;28;20033;-93
2022/06/13 07:36:03;;;;;;;9.57;1.70;;;;;;;10.48;100.00;99129.34;5029891;28;20112;-93
2022/06/13 07:38:28;;;;;;;9.98;1.73;;;;;;;10.44;100.00;99138.06;5028615;28;20517;-93
2022/06/13 07:40:59;;;;;;;8.98;1.65;;;;;;;10.38;100.00;99132.00;5030313;28;20029;-93
2022/06/13 07:43:31;;;;;;;8.38;1.83;;;;;;;10.45;100.00;99135.44;5030853;28;20059;-92
2022/06/13 07:45:59;;;;;;;6.95;1.85;;;;;;;10.36;100.00;99135.50;5032577;28;20092;-93
2022/06/13 07:48:27;;;;;;;9.63;2.05;;;;;;;10.35;100.00;99138.97;5033587;28;20068;-92
2022/06/13 07:50:55;;;;;;;9.73;1.90;;;;;;;10.35;100.00;99142.41;5057964;28;20087;-92
2022/06/13 07:53:24;;;;;;;8.80;1.92;;;;;;;10.38;100.00;99139.84;5035150;28;20128;-92
2022/06/13 07:55:51;;;;;;;6.70;1.83;;;;;;;10.45;100.00;99134.59;5034425;28;20044;-92
2022/06/13 07:58:36;;;;;;;9.25;1.80;;;;;;;10.46;100.00;99134.56;5046474;28;20109;-93
2022/06/13 08:01:06;;;;;;;9.25;1.80;;;;;;;10.56;100.00;99127.59;5034232;28;20036;-93
2022/06/13 08:03:33;;;;;;;8.02;1.80;;;;;;;10.72;100.00;99131.91;5035708;28;20039;-94
2022/06/13 08:06:00;;;;;;;9.05;1.80;;;;;;;10.93;100.00;99137.91;5031680;28;20589;-93
2022/06/13 08:08:29;;;;;;;9.27;1.88;;;;;;;10.95;100.00;99133.53;5034518;28;20037;-91
2022/06/13 08:11:00;;;;;;;10.85;1.70;;;;;;;10.99;100.00;99137.88;5051421;28;20033;-94
2022/06/13 08:13:30;;;;;;;9.18;1.92;;;;;;;11.16;100.00;99127.38;5036532;28;20101;-93
2022/06/13 08:15:57;;;;;;;8.65;1.60;;;;;;;11.37;100.00;99131.59;5052468;28;20049;-91
2022/06/13 08:18:37;;;;;;;8.77;1.95;;;;;;;11.75;100.00;99122.59;5053843;28;20056;-92
2022/06/13 08:21:04;;;;;;;7.07;1.50;;;;;;;11.48;100.00;99121.03;5033354;28;20078;-91
2022/06/13 08:23:30;;;;;;;10.48;1.75;;;;;;;11.36;100.00;99122.00;5057104;28;20033;-91
2022/06/13 08:26:04;;;;;;;7.57;1.50;;;;;;;11.51;100.00;99110.59;5041584;28;20013;-92
2022/06/13 08:28:29;;;;;;;8.07;1.30;;;;;;;11.89;100.00;99106.81;5051785;28;20202;-92
2022/06/13 08:31:04;;;;;;;6.60;1.60;;;;;;;12.07;100.00;99108.41;5048404;28;20025;-93
2022/06/13 08:33:29;;;;;;;8.27;1.50;;;;;;;12.06;100.00;99104.06;5057709;28;20032;-91
2022/06/13 08:35:55;;;;;;;5.97;1.42;;;;;;;12.25;100.00;99114.34;5059953;28;20029;-92
2022/06/13 08:38:23;;;;;;;7.97;1.50;;;;;;;12.02;100.00;99122.41;5049731;28;20115;-91
2022/06/13 08:41:11;;;;;;;7.47;1.30;;;;;;;12.39;100.00;99116.84;5038743;28;20025;-91
2022/06/13 08:43:43;;;;;;;5.40;1.30;;;;;;;12.68;100.00;99118.22;5052943;28;20044;-92
2022/06/13 08:46:31;;;;;;;6.75;1.17;;;;;;;12.64;100.00;99114.81;5068122;28;20063;-93
2022/06/13 08:49:18;;;;;;;5.90;1.20;;;;;;;12.84;100.00;99111.06;5075428;28;20107;-93
2022/06/13 08:52:22;;;;;;;5.93;1.40;;;;;;;13.32;100.00;99106.91;5081041;28;20044;-92
2022/06/13 08:55:02;;;;;;;6.10;1.30;;;;;;;12.93;100.00;99124.03;5098434;28;20021;-91
2022/06/13 08:57:35;;;;;;;7.75;1.35;;;;;;;12.54;100.00;99123.63;5104182;28;20016;-93
2022/06/13 09:00:16;;;;;;;6.95;1.10;;;;;;;12.36;100.00;99120.34;5078562;28;20500;-92
2022/06/13 09:03:11;;;;;;;7.35;1.60;;;;;;;12.35;100.00;99110.75;5069664;28;20039;-91
2022/06/13 09:06:04;;;;;;;5.75;1.10;;;;;;;12.18;100.00;99120.50;5059354;28;20107;-90
2022/06/13 09:08:54;;;;;;;6.13;1.20;;;;;;;12.57;100.00;99128.84;5068195;28;20040;-92
2022/06/13 09:11:55;;;;;;;8.38;1.30;;;;;;;13.03;100.00;99124.81;5067589;28;20047;-92
2022/06/13 09:14:33;;;;;;;6.15;1.27;;;;;;;12.91;100.00;99123.19;5063428;28;20039;-91
2022/06/13 09:17:17;;;;;;;6.25;1.42;;;;;;;12.90;100.00;99127.59;5058452;28;20062;-90
2022/06/13 09:20:13;;;;;;;4.80;1.10;;;;;;;12.73;100.00;99129.53;5062711;28;20035;-91
2022/06/13 09:23:16;;;;;;;7.93;1.45;;;;;;;12.51;100.00;99142.88;5066058;28;20114;-92
2022/06/13 09:26:02;;;;;;;7.47;1.35;;;;;;;12.46;100.00;99144.66;5067847;28;20021;-93
2022/06/13 09:28:55;;;;;;;6.78;1.23;;;;;;;12.33;100.00;99143.91;5072180;28;20028;-92
2022/06/13 09:31:58;;;;;;;8.60;1.73;;;;;;;12.39;100.00;99140.38;5067891;28;20071;-92
2022/06/13 09:34:49;;;;;;;6.45;1.55;;;;;;;12.24;100.00;99144.84;5050634;28;20041;-91
2022/06/13 09:37:39;;;;;;;6.07;1.40;;;;;;;12.36;100.00;99138.66;5062591;28;20048;-92
2022/06/13 09:40:05;;;;;;;5.60;1.35;;;;;;;12.60;100.00;99144.50;5064886;28;20040;-90
2022/06/13 09:42:41;;;;;;;5.07;1.15;;;;;;;12.53;100.00;99146.31;5066226;28;20065;-92
2022/06/13 09:45:41;;;;;;;8.82;1.52;;;;;;;12.64;100.00;99144.44;5070394;28;20170;-90
2022/06/13 09:48:39;;;;;;;5.82;1.13;;;;;;;12.61;100.00;99146.25;5067861;28;20044;-91
2022/06/13 09:51:28;;;;;;;6.43;1.27;;;;;;;12.96;100.00;99145.81;5065944;28;20082;-92
2022/06/13 09:53:54;;;;;;;4.70;1.30;;;;;;;12.96;100.00;99153.66;5061286;28;20036;-92
2022/06/13 09:56:43;;;;;;;6.63;1.50;;;;;;;12.95;100.00;99141.44;5062584;28;20029;-92
2022/06/13 09:59:15;;;;;;;6.68;1.30;;;;;;;12.73;100.00;99143.47;5065344;28;20021;-91
2022/06/13 10:02:19;;;;;;;8.10;1.67;;;;;;;12.82;100.00;99150.38;5067320;28;20027;-91
2022/06/13 10:05:06;;;;;;;5.55;1.40;;;;;;;12.85;100.00;99157.31;4970851;28;20042;-93
2022/06/13 10:08:07;;;;;;;6.70;1.60;;;;;;;12.87;100.00;99159.00;4988137;28;20173;-93
2022/06/13 10:11:07;;;;;;;7.38;1.67;;;;;;;12.82;100.00;99152.97;4961359;28;20172;-93
2022/06/13 10:14:20;;;;;;;6.85;1.48;;;;;;;12.95;100.00;99149.31;4976020;28;20046;-92
2022/06/13 10:17:28;;;;;;;8.27;1.65;;;;;;;12.98;100.00;99159.78;4950357;28;20053;-91
2022/06/13 10:20:31;;;;;;;11.15;1.70;;;;;;;12.66;100.00;99161.88;4954557;28;20038;-94
2022/06/13 10:23:18;;;;;;;8.10;1.73;;;;;;;12.72;100.00;99159.19;4951782;28;20043;-96
2022/06/13 10:26:15;;;;;;;8.82;1.52;;;;;;;12.90;100.00;99156.38;4953500;28;20034;-93
2022/06/13 10:29:17;;;;;;;8.32;1.50;;;;;;;12.91;100.00;99155.47;4911677;29;20043;-96
2022/06/13 10:32:04;;;;;;;7.10;1.55;;;;;;;13.19;100.00;99157.72;4897064;29;20043;-92
2022/06/13 10:34:35;;;;;;;6.38;1.52;;;;;;;12.96;100.00;99151.03;4917677;29;20043;-96
2022/06/13 10:37:25;;;;;;;6.28;1.73;;;;;;;13.06;100.00;99150.94;4902125;29;20043;-96
2022/06/13 10:39:55;;;;;;;6.72;1.70;;;;;;;13.23;100.00;99138.47;4911562;29;20082;-93
2022/06/13 10:42:41;;;;;;;7.38;1.50;;;;;;;13.25;100.00;99138.44;4959864;28;20047;-91
2022/06/13 10:45:35;;;;;;;7.90;1.58;;;;;;;13.47;100.00;99137.31;4962956;28;20086;-96
2022/06/13 10:51:34;;;;;;;7.18;1.70;;;;;;;13.37;100.00;99146.16;4958353;28;20030;-95
2022/06/13 10:54:08;;;;;;;8.93;1.52;;;;;;;13.06;100.00;99161.41;4983181;28;20085;-94
2022/06/13 10:56:35;;;;;;;;;;;;;;;13.19;100.00;99157.72;5002179;28;20093;-95
2022/06/13 10:59:01;;;;;;;8.50;1.73;;;;;;;13.05;100.00;99160.53;5016196;28;19916;-93
2022/06/13 11:01:32;;;;;;;7.90;1.75;;;;;;;13.13;100.00;99170.94;5070140;28;20038;-95
2022/06/13 11:04:00;;;;;;;6.07;1.58;;;;;;;12.92;100.00;99174.69;5066928;28;20082;-94
2022/06/13 11:06:54;;;;;;;7.18;1.95;;;;;;;12.78;100.00;99166.97;5066671;28;20033;-93
2022/06/13 11:10:01;;;;;;;9.30;1.80;;;;;;;12.89;100.00;99162.47;5085647;28;20539;-94
2022/06/13 11:12:33;;;;;;;6.25;1.40;;;;;;;12.85;100.00;99163.41;5070008;28;20052;-93
2022/06/13 11:24:02;;;;;;;7.13;1.45;;;;;;;13.02;100.00;99152.72;5067621;28;20052;-94
2022/06/13 11:29:22;;;;;;;8.15;1.65;;;;;;;12.92;100.00;99151.13;5064751;28;20055;-92
2022/06/13 11:31:52;;;;;;;7.15;1.40;;;;;;;13.08;100.00;99154.41;5071858;28;20495;-93
2022/06/13 11:34:28;;;;;;;8.90;1.80;;;;;;;13.04;100.00;99152.69;5071874;28;20031;-94
2022/06/13 11:37:21;;;;;;;7.85;1.73;;;;;;;13.05;100.00;99154.44;5066457;28;20064;-94
2022/06/13 11:40:33;;;;;;;7.85;1.50;;;;;;;13.43;100.00;99150.47;5063105;28;20040;-96
2022/06/13 11:42:59;;;;;;;7.35;1.48;;;;;;;13.64;100.00;99147.53;5055038;28;20033;-95
2022/06/13 11:45:27;;;;;;;6.30;1.70;;;;;;;13.73;100.00;99154.38;5079635;28;20035;-95
2022/06/13 11:47:53;;;;;;;8.13;1.80;;;;;;;13.41;100.00;99145.25;5064097;28;20050;-94
2022/06/13 11:50:19;;;;;;;5.25;1.40;;;;;;;13.61;100.00;99151.94;5058089;28;20035;-94
2022/06/13 11:55:36;;;;;;;7.07;1.40;;;;;;;13.50;100.00;99146.88;5066932;28;20275;-94
2022/06/13 11:58:03;;;;;;;7.90;2.55;;;;;;;13.32;100.00;99147.97;5066655;28;20085;-94
2022/06/13 12:00:37;;;;;;;9.02;1.67;;;;;;;13.61;100.00;99144.97;5064723;28;20025;-93
2022/06/13 12:03:09;;;;;;;7.90;1.50;;;;;;;13.31;100.00;99146.25;5066532;28;20031;-94
2022/06/13 12:05:38;;;;;;;8.30;1.88;;;;;;;13.05;100.00;99152.69;5061591;28;20060;-94
2022/06/13 12:08:16;;;;;;;8.07;1.50;;;;;;;13.10;100.00;99152.63;5065848;28;20115;-92
2022/06/13 12:11:03;;;;;;;9.27;2.00;;;;;;;13.18;100.00;99144.66;5064894;28;20999;-93
2022/06/13 12:13:32;;;;;;;9.30;1.60;;;;;;;13.65;100.00;99141.41;5068467;28;20032;-94
2022/06/13 12:16:15;;;;;;;9.43;1.77;;;;;;;14.22;100.00;99141.34;5062821;28;20036;-93
2022/06/13 12:18:46;;;;;;;9.43;1.77;;;;;;;13.89;100.00;99138.41;5062658;28;20054;-96
2022/06/13 12:21:38;;;;;;;10.40;2.05;;;;;;;13.76;100.00;99148.22;5069661;28;20024;-92
2022/06/13 12:24:18;;;;;;;7.43;1.52;;;;;;;13.73;100.00;99145.66;5066618;28;20044;-94
2022/06/13 12:26:52;;;;;;;8.73;1.60;;;;;;;14.07;100.00;99143.34;5060196;28;20033;-93
2022/06/13 12:29:30;;;;;;;7.05;1.65;;;;;;;13.87;100.00;99143.69;5068361;28;20504;-95
2022/06/13 12:32:13;;;;;;;7.40;1.60;;;;;;;14.19;100.00;99144.88;5090382;28;20496;-93
2022/06/13 12:34:50;;;;;;;7.28;1.80;;;;;;;14.26;100.00;99146.50;5064473;28;20146;-93
2022/06/13 12:37:22;;;;;;;10.02;1.80;;;;;;;13.90;100.00;99130.50;5071141;28;20099;-94
2022/06/13 12:40:18;;;;;;;6.82;1.73;;;;;;;14.12;100.00;99141.50;5091774;28;20059;-95
2022/06/13 12:43:06;;;;;;;8.63;1.92;;;;;;;14.01;100.00;99130.34;5078656;28;20036;-94
2022/06/13 12:45:56;;;;;;;8.38;1.90;;;;;;;14.17;100.00;99129.19;5032263;28;20037;-94
2022/06/13 12:48:31;;;;;;;6.15;1.50;;;;;;;14.37;100.00;99125.31;5051330;28;20047;-93
2022/06/13 12:51:27;;;;;;;8.73;1.60;;;;;;;14.32;100.00;99122.81;5030760;28;20022;-92
2022/06/13 12:54:10;;;;;;;6.80;1.80;;;;;;;14.33;100.00;99128.91;5039852;28;20029;-94